KAEX/AEX METAR and TAF weather

Enter ICAO airport designator
Station Type Date Time Source
KAEX METAR 2018/10/16 21:26 UTC NOAA

KAEX 162126Z 05005KT 3SM RA BR SCT009 OVC023 12/12 A3009 RMK AO2 P0007 T01220117


Station Type Date Time Source
KAEX Decoded METAR 2018/10/16 21:26 UTC NOAA

ALEXANDRIA INTERNATIONAL AIRPORT, LA, United States (KAEX) 31-33N 092-56W 27M
Oct 16, 2018 - 05:26 PM EDT / 2018.10.16 2126 UTC
Wind: from the NE (050 degrees) at 6 MPH (5 KT):0
Visibility: 3 mile(s):0
Sky conditions: overcast
Weather: rain; mist
Precipitation last hour: 0.07 inches
Temperature: 54.0 F (12.2 C)
Dew Point: 53.1 F (11.7 C)
Relative Humidity: 96%
Pressure (altimeter): 30.09 in. Hg (1018 hPa)
ob: KAEX 162126Z 05005KT 3SM RA BR SCT009 OVC023 12/12 A3009 RMK AO2 P0007 T01220117
cycle: 21

Station Type Date Time Source
KAEX TAF 2018/10/16 18:28 UTC NOAA

TAF KAEX 161726Z 1618/1718 02007KT P6SM -SHRA BKN008 OVC015
TEMPO 1618/1622 3SM RA BR OVC007
FM162200 02008KT P6SM VCSH BKN008 OVC015
FM170300 02008KT P6SM OVC008
FM171600 03010KT P6SM OVC015


Example: see airport list